createdAt,value
2023-01-30T20:27:16.996Z,101068.89
2023-01-30T20:28:16.984Z,101069.37
2023-01-30T20:38:05.824Z,100988.78
2023-01-30T20:39:05.949Z,100992.59
2023-01-30T20:40:05.813Z,100996.72
2023-01-30T20:41:05.688Z,100983.15
2023-01-30T20:42:05.722Z,100984.8
2023-01-30T20:43:05.596Z,100986.04
2023-01-30T20:44:05.598Z,100979.35
2023-01-30T20:45:05.453Z,100981.89
2023-01-30T20:46:05.439Z,100980.09
2023-01-30T20:47:05.346Z,100978.24
2023-01-30T20:48:05.180Z,100977.54
2023-01-30T20:49:05.236Z,100982.59
2023-01-30T20:50:05.018Z,100971.93
2023-01-30T20:51:04.987Z,100980.05
2023-01-30T20:52:04.879Z,100978.7
2023-01-30T20:53:04.748Z,100973.96
2023-01-30T20:54:04.788Z,100979.25
2023-01-30T20:55:04.542Z,100977.26
2023-01-30T20:56:04.471Z,100981.54
2023-01-30T20:57:04.490Z,100983.14
2023-01-30T20:58:04.315Z,100982.4
2023-01-30T20:59:04.232Z,100986.46
2023-01-30T21:00:04.081Z,100993.92
2023-01-30T21:01:03.946Z,100987.03
2023-01-30T21:02:03.937Z,100990.72
2023-01-30T21:03:03.761Z,100983.37
2023-01-30T21:04:03.616Z,100981.35
2023-01-30T21:05:03.580Z,100987.82
2023-01-30T21:19:04.452Z,100986.47
2023-01-30T22:21:54.561Z,100924.06
2023-01-30T22:22:54.517Z,100927.6
2023-01-30T22:23:54.377Z,100926.49
2023-01-30T22:24:54.250Z,100930.2
2023-01-30T22:25:54.169Z,100928.7
2023-01-30T22:26:54.018Z,100929.18
2023-01-30T22:27:53.860Z,100924.71
2023-01-30T22:28:53.812Z,100929.6
2023-01-30T22:29:53.670Z,100929.7
2023-01-30T22:30:53.596Z,100927.96
2023-01-30T23:43:44.647Z,100868.7
2023-01-30T23:44:44.511Z,100869.04
2023-01-30T23:45:44.417Z,100871.62
2023-01-30T23:46:44.267Z,100871.68
2023-01-30T23:47:44.272Z,100869.95
2023-01-30T23:48:44.085Z,100869.71
2023-01-30T23:49:43.907Z,100865.12
2023-01-30T23:50:43.792Z,100866.57
2023-01-30T23:51:43.696Z,100869.28
2023-01-30T23:52:43.632Z,100868.67
